sensor_id;sensor_type;location;lat;lon;timestamp;pressure;altitude;pressure_sealevel;temperature;humidity
6020;BME280;3038;51.122;6.840;2023-03-26T00:01:25;100485.91;;;9.23;74.98
6020;BME280;3038;51.122;6.840;2023-03-26T00:03:52;100485.38;;;9.20;75.49
6020;BME280;3038;51.122;6.840;2023-03-26T00:06:40;100487.84;;;9.21;75.16
6020;BME280;3038;51.122;6.840;2023-03-26T00:09:09;100491.03;;;9.25;75.49
6020;BME280;3038;51.122;6.840;2023-03-26T00:11:37;100492.50;;;9.27;75.33
6020;BME280;3038;51.122;6.840;2023-03-26T00:14:02;100489.88;;;9.27;75.29
6020;BME280;3038;51.122;6.840;2023-03-26T00:16:30;100503.44;;;9.24;75.81
6020;BME280;3038;51.122;6.840;2023-03-26T00:18:57;100487.56;;;9.24;75.43
6020;BME280;3038;51.122;6.840;2023-03-26T00:21:25;100493.84;;;9.23;75.92
6020;BME280;3038;51.122;6.840;2023-03-26T00:24:00;100491.50;;;9.20;76.29
6020;BME280;3038;51.122;6.840;2023-03-26T00:26:28;100489.47;;;9.14;76.19
6020;BME280;3038;51.122;6.840;2023-03-26T00:28:55;100490.44;;;9.13;76.67
6020;BME280;3038;51.122;6.840;2023-03-26T00:31:21;100491.31;;;9.14;76.49
6020;BME280;3038;51.122;6.840;2023-03-26T00:33:47;100482.03;;;9.18;76.69
6020;BME280;3038;51.122;6.840;2023-03-26T00:36:19;100479.91;;;9.21;76.69
6020;BME280;3038;51.122;6.840;2023-03-26T00:38:46;100481.91;;;9.27;76.75
6020;BME280;3038;51.122;6.840;2023-03-26T00:41:14;100475.50;;;9.30;76.65
6020;BME280;3038;51.122;6.840;2023-03-26T00:43:47;100481.31;;;9.34;76.56
6020;BME280;3038;51.122;6.840;2023-03-26T00:46:13;100469.72;;;9.35;76.48
6020;BME280;3038;51.122;6.840;2023-03-26T00:48:39;100472.03;;;9.38;76.76
6020;BME280;3038;51.122;6.840;2023-03-26T00:51:07;100471.72;;;9.41;76.57
6020;BME280;3038;51.122;6.840;2023-03-26T00:53:33;100476.88;;;9.42;75.99
6020;BME280;3038;51.122;6.840;2023-03-26T00:55:59;100473.56;;;9.40;76.33
6020;BME280;3038;51.122;6.840;2023-03-26T00:58:27;100472.38;;;9.35;76.11
6020;BME280;3038;51.122;6.840;2023-03-26T01:01:00;100461.56;;;9.28;76.91
6020;BME280;3038;51.122;6.840;2023-03-26T01:03:28;100460.38;;;9.22;77.02
6020;BME280;3038;51.122;6.840;2023-03-26T01:06:07;100447.25;;;9.13;76.34
6020;BME280;3038;51.122;6.840;2023-03-26T01:08:46;100444.09;;;9.09;77.08
6020;BME280;3038;51.122;6.840;2023-03-26T01:11:24;100440.56;;;9.00;77.47
6020;BME280;3038;51.122;6.840;2023-03-26T01:13:56;100440.50;;;8.92;77.72
6020;BME280;3038;51.122;6.840;2023-03-26T01:16:30;100434.69;;;8.89;77.72
6020;BME280;3038;51.122;6.840;2023-03-26T01:18:57;100432.03;;;8.89;78.62
6020;BME280;3038;51.122;6.840;2023-03-26T01:21:28;100426.25;;;8.85;77.99
6020;BME280;3038;51.122;6.840;2023-03-26T01:26:59;100415.50;;;8.87;78.20
6020;BME280;3038;51.122;6.840;2023-03-26T01:35:06;100404.19;;;8.77;78.34
6020;BME280;3038;51.122;6.840;2023-03-26T01:40:35;100401.16;;;8.71;78.33
6020;BME280;3038;51.122;6.840;2023-03-26T01:45:51;100389.53;;;8.64;78.46
6020;BME280;3038;51.122;6.840;2023-03-26T01:48:17;100387.34;;;8.60;78.44
6020;BME280;3038;51.122;6.840;2023-03-26T01:50:42;100379.22;;;8.53;79.01
6020;BME280;3038;51.122;6.840;2023-03-26T01:53:09;100387.44;;;8.50;79.13
6020;BME280;3038;51.122;6.840;2023-03-26T01:58:44;100377.66;;;8.42;79.11
6020;BME280;3038;51.122;6.840;2023-03-26T02:01:32;100376.13;;;8.40;79.20
6020;BME280;3038;51.122;6.840;2023-03-26T02:06:35;100365.47;;;8.32;80.03
6020;BME280;3038;51.122;6.840;2023-03-26T02:09:11;100374.53;;;8.29;79.72
6020;BME280;3038;51.122;6.840;2023-03-26T02:11:39;100372.06;;;8.28;80.03
6020;BME280;3038;51.122;6.840;2023-03-26T02:14:07;100364.41;;;8.24;79.43
6020;BME280;3038;51.122;6.840;2023-03-26T02:16:35;100365.69;;;8.20;79.80
6020;BME280;3038;51.122;6.840;2023-03-26T02:19:01;100359.06;;;8.16;79.88
6020;BME280;3038;51.122;6.840;2023-03-26T02:21:27;100357.72;;;8.12;79.88
6020;BME280;3038;51.122;6.840;2023-03-26T02:23:55;100353.72;;;8.08;80.46
6020;BME280;3038;51.122;6.840;2023-03-26T02:26:28;100344.81;;;8.09;79.68
6020;BME280;3038;51.122;6.840;2023-03-26T02:28:57;100340.34;;;8.10;79.99
6020;BME280;3038;51.122;6.840;2023-03-26T02:31:23;100333.22;;;8.10;79.84
6020;BME280;3038;51.122;6.840;2023-03-26T02:33:52;100330.44;;;8.12;79.46
6020;BME280;3038;51.122;6.840;2023-03-26T02:36:18;100322.00;;;8.08;79.67
6020;BME280;3038;51.122;6.840;2023-03-26T02:38:48;100321.28;;;8.06;79.53
6020;BME280;3038;51.122;6.840;2023-03-26T02:41:14;100315.03;;;8.07;79.73
6020;BME280;3038;51.122;6.840;2023-03-26T02:43:39;100314.44;;;8.13;80.03
6020;BME280;3038;51.122;6.840;2023-03-26T02:46:05;100303.97;;;8.12;79.54
6020;BME280;3038;51.122;6.840;2023-03-26T02:48:30;100303.84;;;8.13;78.88
6020;BME280;3038;51.122;6.840;2023-03-26T02:50:56;100292.94;;;8.16;79.15
6020;BME280;3038;51.122;6.840;2023-03-26T02:53:22;100291.28;;;8.15;78.28
6020;BME280;3038;51.122;6.840;2023-03-26T02:55:48;100290.31;;;8.16;78.70
6020;BME280;3038;51.122;6.840;2023-03-26T02:58:13;100280.09;;;8.21;78.22
6020;BME280;3038;51.122;6.840;2023-03-26T03:00:45;100276.84;;;8.28;78.33
6020;BME280;3038;51.122;6.840;2023-03-26T03:03:12;100275.56;;;8.32;78.05
6020;BME280;3038;51.122;6.840;2023-03-26T03:05:39;100273.72;;;8.32;78.46
6020;BME280;3038;51.122;6.840;2023-03-26T03:08:08;100268.66;;;8.39;78.01
6020;BME280;3038;51.122;6.840;2023-03-26T03:10:34;100273.13;;;8.38;77.98
6020;BME280;3038;51.122;6.840;2023-03-26T03:12:59;100261.41;;;8.41;77.60
6020;BME280;3038;51.122;6.840;2023-03-26T03:15:25;100252.50;;;8.42;78.19
6020;BME280;3038;51.122;6.840;2023-03-26T03:17:53;100258.75;;;8.41;78.03
6020;BME280;3038;51.122;6.840;2023-03-26T03:20:19;100248.84;;;8.43;77.91
6020;BME280;3038;51.122;6.840;2023-03-26T03:22:46;100252.16;;;8.45;77.58
6020;BME280;3038;51.122;6.840;2023-03-26T03:25:11;100248.53;;;8.46;77.53
6020;BME280;3038;51.122;6.840;2023-03-26T03:27:42;100249.03;;;8.49;77.64
6020;BME280;3038;51.122;6.840;2023-03-26T03:30:10;100235.97;;;8.48;77.57
6020;BME280;3038;51.122;6.840;2023-03-26T03:32:36;100245.25;;;8.52;76.81
6020;BME280;3038;51.122;6.840;2023-03-26T03:35:02;100241.97;;;8.58;77.23
6020;BME280;3038;51.122;6.840;2023-03-26T03:37:27;100239.69;;;8.63;77.00
6020;BME280;3038;51.122;6.840;2023-03-26T03:39:52;100233.09;;;8.67;76.94
6020;BME280;3038;51.122;6.840;2023-03-26T03:42:18;100240.56;;;8.72;77.30
6020;BME280;3038;51.122;6.840;2023-03-26T03:44:43;100229.78;;;8.73;76.76
6020;BME280;3038;51.122;6.840;2023-03-26T03:47:09;100225.84;;;8.78;76.67
6020;BME280;3038;51.122;6.840;2023-03-26T03:49:38;100218.91;;;8.77;77.24
6020;BME280;3038;51.122;6.840;2023-03-26T03:52:04;100224.84;;;8.79;76.47
6020;BME280;3038;51.122;6.840;2023-03-26T03:54:29;100226.03;;;8.84;76.49
6020;BME280;3038;51.122;6.840;2023-03-26T03:56:55;100211.13;;;8.83;76.68
6020;BME280;3038;51.122;6.840;2023-03-26T03:59:20;100217.94;;;8.86;76.54
6020;BME280;3038;51.122;6.840;2023-03-26T04:01:46;100210.47;;;8.89;77.02
6020;BME280;3038;51.122;6.840;2023-03-26T04:04:12;100210.81;;;8.94;77.41
6020;BME280;3038;51.122;6.840;2023-03-26T04:06:38;100199.09;;;8.97;76.69
6020;BME280;3038;51.122;6.840;2023-03-26T04:09:03;100206.03;;;8.98;76.76
6020;BME280;3038;51.122;6.840;2023-03-26T04:11:29;100194.44;;;8.99;77.11
6020;BME280;3038;51.122;6.840;2023-03-26T04:13:57;100184.53;;;9.01;77.32
6020;BME280;3038;51.122;6.840;2023-03-26T04:16:23;100181.91;;;9.01;76.79
6020;BME280;3038;51.122;6.840;2023-03-26T04:18:48;100185.06;;;9.05;76.93
6020;BME280;3038;51.122;6.840;2023-03-26T04:21:14;100182.25;;;9.06;77.37
6020;BME280;3038;51.122;6.840;2023-03-26T04:23:40;100182.25;;;9.06;77.78
6020;BME280;3038;51.122;6.840;2023-03-26T04:26:08;100167.81;;;9.09;77.69
6020;BME280;3038;51.122;6.840;2023-03-26T04:29:02;100163.72;;;9.14;78.58
6020;BME280;3038;51.122;6.840;2023-03-26T04:31:28;100153.13;;;9.14;78.11
6020;BME280;3038;51.122;6.840;2023-03-26T04:34:04;100148.47;;;9.16;78.51
6020;BME280;3038;51.122;6.840;2023-03-26T04:36:38;100158.75;;;9.11;78.40
6020;BME280;3038;51.122;6.840;2023-03-26T04:39:09;100159.56;;;9.12;78.33
6020;BME280;3038;51.122;6.840;2023-03-26T04:41:38;100136.88;;;9.17;78.85
6020;BME280;3038;51.122;6.840;2023-03-26T04:44:03;100139.03;;;9.22;79.00
6020;BME280;3038;51.122;6.840;2023-03-26T04:46:29;100129.78;;;9.26;78.66
6020;BME280;3038;51.122;6.840;2023-03-26T04:48:58;100126.47;;;9.24;78.30
6020;BME280;3038;51.122;6.840;2023-03-26T04:51:36;100121.31;;;9.22;78.77
6020;BME280;3038;51.122;6.840;2023-03-26T04:54:03;100117.03;;;9.21;78.58
6020;BME280;3038;51.122;6.840;2023-03-26T04:56:42;100115.38;;;9.20;78.84
6020;BME280;3038;51.122;6.840;2023-03-26T04:59:12;100117.53;;;9.17;79.05
6020;BME280;3038;51.122;6.840;2023-03-26T05:01:39;100113.41;;;9.14;79.27
6020;BME280;3038;51.122;6.840;2023-03-26T05:04:05;100120.53;;;9.14;79.27
6020;BME280;3038;51.122;6.840;2023-03-26T05:06:31;100116.06;;;9.14;79.11
6020;BME280;3038;51.122;6.840;2023-03-26T05:08:59;100110.75;;;9.14;78.83
6020;BME280;3038;51.122;6.840;2023-03-26T05:11:28;100107.09;;;9.15;78.94
6020;BME280;3038;51.122;6.840;2023-03-26T05:13:53;100105.47;;;9.14;78.82
6020;BME280;3038;51.122;6.840;2023-03-26T05:16:27;100103.63;;;9.15;79.41
6020;BME280;3038;51.122;6.840;2023-03-26T05:18:52;100111.72;;;9.13;78.42
6020;BME280;3038;51.122;6.840;2023-03-26T05:21:21;100103.44;;;9.08;79.36
6020;BME280;3038;51.122;6.840;2023-03-26T05:23:46;100101.97;;;9.06;78.99
6020;BME280;3038;51.122;6.840;2023-03-26T05:26:12;100095.03;;;9.05;79.08
6020;BME280;3038;51.122;6.840;2023-03-26T05:28:37;100100.81;;;9.08;79.63
6020;BME280;3038;51.122;6.840;2023-03-26T05:31:05;100084.59;;;9.11;78.91
6020;BME280;3038;51.122;6.840;2023-03-26T05:33:32;100080.94;;;9.12;79.69
6020;BME280;3038;51.122;6.840;2023-03-26T05:36:05;100085.72;;;9.09;79.24
6020;BME280;3038;51.122;6.840;2023-03-26T05:38:32;100077.66;;;9.10;79.09
6020;BME280;3038;51.122;6.840;2023-03-26T05:41:02;100072.84;;;9.14;79.63
6020;BME280;3038;51.122;6.840;2023-03-26T05:43:29;100065.72;;;9.14;80.05
6020;BME280;3038;51.122;6.840;2023-03-26T05:45:55;100068.06;;;9.09;80.94
6020;BME280;3038;51.122;6.840;2023-03-26T05:48:21;100054.31;;;9.06;80.60
6020;BME280;3038;51.122;6.840;2023-03-26T05:50:47;100049.34;;;9.11;80.84
6020;BME280;3038;51.122;6.840;2023-03-26T05:53:13;100051.16;;;9.10;80.08
6020;BME280;3038;51.122;6.840;2023-03-26T05:55:38;100050.50;;;9.08;80.00
6020;BME280;3038;51.122;6.840;2023-03-26T05:58:05;100049.34;;;9.02;80.38
6020;BME280;3038;51.122;6.840;2023-03-26T06:00:30;100054.13;;;8.99;80.72
6020;BME280;3038;51.122;6.840;2023-03-26T06:02:55;100047.53;;;8.95;80.30
6020;BME280;3038;51.122;6.840;2023-03-26T06:05:21;100040.56;;;8.94;81.13
6020;BME280;3038;51.122;6.840;2023-03-26T06:07:47;100040.91;;;8.91;81.58
6020;BME280;3038;51.122;6.840;2023-03-26T06:10:12;100032.47;;;8.87;82.04
6020;BME280;3038;51.122;6.840;2023-03-26T06:12:37;100028.50;;;8.83;81.53
6020;BME280;3038;51.122;6.840;2023-03-26T06:15:03;100027.66;;;8.83;82.35
6020;BME280;3038;51.122;6.840;2023-03-26T06:17:28;100025.50;;;8.78;83.06
6020;BME280;3038;51.122;6.840;2023-03-26T06:19:56;100028.00;;;8.80;83.47
6020;BME280;3038;51.122;6.840;2023-03-26T06:22:22;100017.41;;;8.80;83.01
6020;BME280;3038;51.122;6.840;2023-03-26T06:24:48;100003.84;;;8.83;83.43
6020;BME280;3038;51.122;6.840;2023-03-26T06:27:14;99997.22;;;8.87;84.02
6020;BME280;3038;51.122;6.840;2023-03-26T06:29:39;99986.31;;;8.90;83.74
6020;BME280;3038;51.122;6.840;2023-03-26T06:32:05;99982.50;;;8.84;84.24
6020;BME280;3038;51.122;6.840;2023-03-26T06:34:30;99979.69;;;8.86;84.48
6020;BME280;3038;51.122;6.840;2023-03-26T06:36:55;99974.41;;;8.86;83.94
6020;BME280;3038;51.122;6.840;2023-03-26T06:39:21;99970.25;;;8.83;84.71
6020;BME280;3038;51.122;6.840;2023-03-26T06:41:46;99973.09;;;8.82;85.09
6020;BME280;3038;51.122;6.840;2023-03-26T06:44:11;99965.78;;;8.84;84.63
6020;BME280;3038;51.122;6.840;2023-03-26T06:46:37;99964.47;;;8.80;85.79
6020;BME280;3038;51.122;6.840;2023-03-26T06:49:02;99974.09;;;8.81;85.57
6020;BME280;3038;51.122;6.840;2023-03-26T06:51:28;99965.78;;;8.84;85.48
6020;BME280;3038;51.122;6.840;2023-03-26T06:53:53;99959.84;;;8.90;85.23
6020;BME280;3038;51.122;6.840;2023-03-26T06:56:19;99966.44;;;8.94;85.64
6020;BME280;3038;51.122;6.840;2023-03-26T06:58:46;99963.13;;;9.00;84.87
6020;BME280;3038;51.122;6.840;2023-03-26T07:01:12;99955.19;;;9.00;85.27
6020;BME280;3038;51.122;6.840;2023-03-26T07:03:37;99979.84;;;8.92;85.20
6020;BME280;3038;51.122;6.840;2023-03-26T07:06:03;99990.44;;;8.84;86.32
6020;BME280;3038;51.122;6.840;2023-03-26T07:08:31;99982.03;;;8.81;86.12
6020;BME280;3038;51.122;6.840;2023-03-26T07:10:56;99969.94;;;8.86;86.66
6020;BME280;3038;51.122;6.840;2023-03-26T07:13:21;99968.94;;;8.87;86.73
6020;BME280;3038;51.122;6.840;2023-03-26T07:15:47;99968.13;;;8.87;87.31
6020;BME280;3038;51.122;6.840;2023-03-26T07:18:13;99961.50;;;8.91;86.49
6020;BME280;3038;51.122;6.840;2023-03-26T07:20:39;99952.88;;;8.89;86.48
6020;BME280;3038;51.122;6.840;2023-03-26T07:23:04;99952.88;;;8.89;86.89
6020;BME280;3038;51.122;6.840;2023-03-26T07:25:30;99945.44;;;8.92;86.99
6020;BME280;3038;51.122;6.840;2023-03-26T07:28:02;99945.25;;;8.94;86.60
6020;BME280;3038;51.122;6.840;2023-03-26T07:31:10;99937.81;;;8.97;87.57
6020;BME280;3038;51.122;6.840;2023-03-26T07:34:00;99933.00;;;9.09;86.32
6020;BME280;3038;51.122;6.840;2023-03-26T07:36:57;99931.81;;;9.12;86.58
6020;BME280;3038;51.122;6.840;2023-03-26T07:39:40;99928.66;;;9.24;86.62
6020;BME280;3038;51.122;6.840;2023-03-26T07:47:41;99923.19;;;9.26;86.21
6020;BME280;3038;51.122;6.840;2023-03-26T07:50:13;99929.66;;;9.23;86.39
6020;BME280;3038;51.122;6.840;2023-03-26T07:52:39;99919.06;;;9.15;86.47
6020;BME280;3038;51.122;6.840;2023-03-26T07:55:05;99924.06;;;9.10;86.68
6020;BME280;3038;51.122;6.840;2023-03-26T07:57:40;99921.91;;;9.06;86.61
6020;BME280;3038;51.122;6.840;2023-03-26T08:02:51;99919.59;;;9.02;86.73
6020;BME280;3038;51.122;6.840;2023-03-26T08:05:31;99913.34;;;8.95;87.28
6020;BME280;3038;51.122;6.840;2023-03-26T08:08:22;99908.69;;;8.97;87.93
6020;BME280;3038;51.122;6.840;2023-03-26T08:11:13;99912.78;;;9.08;87.70
6020;BME280;3038;51.122;6.840;2023-03-26T08:18:55;99899.22;;;9.11;86.89
6020;BME280;3038;51.122;6.840;2023-03-26T08:21:46;99905.22;;;9.05;87.56
6020;BME280;3038;51.122;6.840;2023-03-26T08:24:39;99907.22;;;8.95;87.79
6020;BME280;3038;51.122;6.840;2023-03-26T08:27:38;99904.91;;;8.92;87.35
6020;BME280;3038;51.122;6.840;2023-03-26T08:30:37;99901.25;;;8.93;87.21
6020;BME280;3038;51.122;6.840;2023-03-26T08:33:12;99901.06;;;8.94;87.54
6020;BME280;3038;51.122;6.840;2023-03-26T08:35:41;99895.00;;;8.86;87.68
6020;BME280;3038;51.122;6.840;2023-03-26T08:38:11;99896.97;;;8.84;87.75
6020;BME280;3038;51.122;6.840;2023-03-26T08:49:48;99897.31;;;8.81;87.64
6020;BME280;3038;51.122;6.840;2023-03-26T08:52:33;99896.16;;;8.83;87.85
6020;BME280;3038;51.122;6.840;2023-03-26T08:55:14;99892.69;;;8.83;88.26
6020;BME280;3038;51.122;6.840;2023-03-26T09:00:49;99891.53;;;8.77;87.90
6020;BME280;3038;51.122;6.840;2023-03-26T09:09:06;99885.91;;;8.80;86.74
6020;BME280;3038;51.122;6.840;2023-03-26T09:20:25;99877.81;;;8.73;87.01
6020;BME280;3038;51.122;6.840;2023-03-26T09:22:58;99872.50;;;8.82;86.91
6020;BME280;3038;51.122;6.840;2023-03-26T09:31:27;99854.78;;;8.90;86.42
6020;BME280;3038;51.122;6.840;2023-03-26T09:34:26;99858.91;;;8.85;85.71
6020;BME280;3038;51.122;6.840;2023-03-26T09:39:46;99852.97;;;8.83;84.16
6020;BME280;3038;51.122;6.840;2023-03-26T09:48:29;99846.03;;;8.82;84.23
6020;BME280;3038;51.122;6.840;2023-03-26T09:51:23;99842.88;;;8.86;83.96
6020;BME280;3038;51.122;6.840;2023-03-26T09:54:31;99835.09;;;8.85;82.76
6020;BME280;3038;51.122;6.840;2023-03-26T10:00:05;99825.81;;;8.89;83.63
6020;BME280;3038;51.122;6.840;2023-03-26T10:19:36;99808.94;;;9.29;83.54
6020;BME280;3038;51.122;6.840;2023-03-26T10:22:32;99806.28;;;9.29;84.63
6020;BME280;3038;51.122;6.840;2023-03-26T10:33:25;99799.59;;;9.64;83.45
6020;BME280;3038;51.122;6.840;2023-03-26T10:36:01;99803.03;;;9.73;83.89
6020;BME280;3038;51.122;6.840;2023-03-26T10:41:29;99794.31;;;9.87;82.80
6020;BME280;3038;51.122;6.840;2023-03-26T10:47:09;99786.88;;;9.83;82.45
6020;BME280;3038;51.122;6.840;2023-03-26T10:52:24;99785.28;;;9.96;82.88
6020;BME280;3038;51.122;6.840;2023-03-26T10:55:15;99790.41;;;9.98;81.87
6020;BME280;3038;51.122;6.840;2023-03-26T10:57:53;99785.38;;;10.03;82.96
6020;BME280;3038;51.122;6.840;2023-03-26T11:00:25;99782.47;;;10.13;82.46
6020;BME280;3038;51.122;6.840;2023-03-26T11:05:48;99779.28;;;10.17;82.40
6020;BME280;3038;51.122;6.840;2023-03-26T11:08:24;99774.00;;;10.17;81.34
6020;BME280;3038;51.122;6.840;2023-03-26T11:16:48;99765.22;;;9.79;82.41
6020;BME280;3038;51.122;6.840;2023-03-26T11:19:30;99764.88;;;9.82;83.64
6020;BME280;3038;51.122;6.840;2023-03-26T11:25:07;99761.19;;;10.06;81.98
6020;BME280;3038;51.122;6.840;2023-03-26T11:28:02;99762.34;;;10.03;82.89
6020;BME280;3038;51.122;6.840;2023-03-26T11:30:40;99761.06;;;10.14;83.67
6020;BME280;3038;51.122;6.840;2023-03-26T11:33:21;99745.69;;;10.33;83.00
6020;BME280;3038;51.122;6.840;2023-03-26T11:35:52;99754.94;;;10.37;83.33
6020;BME280;3038;51.122;6.840;2023-03-26T11:38:41;99751.44;;;10.66;82.41
6020;BME280;3038;51.122;6.840;2023-03-26T11:41:15;99748.41;;;10.84;80.09
6020;BME280;3038;51.122;6.840;2023-03-26T11:43:49;99754.09;;;10.80;80.51
6020;BME280;3038;51.122;6.840;2023-03-26T11:46:18;99742.38;;;10.75;80.89
6020;BME280;3038;51.122;6.840;2023-03-26T11:48:48;99750.25;;;10.68;82.04
6020;BME280;3038;51.122;6.840;2023-03-26T11:51:31;99751.16;;;10.75;81.69
6020;BME280;3038;51.122;6.840;2023-03-26T11:53:58;99747.50;;;10.76;80.81
6020;BME280;3038;51.122;6.840;2023-03-26T11:59:11;99748.25;;;10.70;80.85
6020;BME280;3038;51.122;6.840;2023-03-26T12:01:56;99748.31;;;10.62;80.15
6020;BME280;3038;51.122;6.840;2023-03-26T12:04:40;99745.78;;;10.54;79.96
6020;BME280;3038;51.122;6.840;2023-03-26T12:07:19;99748.41;;;10.39;80.63
6020;BME280;3038;51.122;6.840;2023-03-26T12:09:52;99755.38;;;10.25;82.53
6020;BME280;3038;51.122;6.840;2023-03-26T12:12:19;99745.44;;;10.19;81.52
6020;BME280;3038;51.122;6.840;2023-03-26T12:14:46;99746.16;;;10.13;81.26
6020;BME280;3038;51.122;6.840;2023-03-26T12:17:29;99745.25;;;10.06;80.98
6020;BME280;3038;51.122;6.840;2023-03-26T12:19:55;99742.34;;;10.01;80.96
6020;BME280;3038;51.122;6.840;2023-03-26T12:22:35;99744.38;;;9.91;80.69
6020;BME280;3038;51.122;6.840;2023-03-26T12:27:33;99748.47;;;9.78;82.19
6020;BME280;3038;51.122;6.840;2023-03-26T12:30:20;99746.56;;;9.72;81.81
6020;BME280;3038;51.122;6.840;2023-03-26T12:32:47;99748.91;;;9.67;82.87
6020;BME280;3038;51.122;6.840;2023-03-26T12:35:25;99749.25;;;9.64;82.54
6020;BME280;3038;51.122;6.840;2023-03-26T12:37:53;99743.19;;;9.56;82.33
6020;BME280;3038;51.122;6.840;2023-03-26T12:40:31;99749.69;;;9.53;81.44
6020;BME280;3038;51.122;6.840;2023-03-26T12:43:30;99752.56;;;9.43;81.93
6020;BME280;3038;51.122;6.840;2023-03-26T12:46:00;99756.03;;;9.44;83.12
6020;BME280;3038;51.122;6.840;2023-03-26T12:48:29;99762.97;;;9.45;82.45
6020;BME280;3038;51.122;6.840;2023-03-26T12:51:10;99755.31;;;9.50;81.49
6020;BME280;3038;51.122;6.840;2023-03-26T12:53:52;99759.81;;;9.49;81.22
6020;BME280;3038;51.122;6.840;2023-03-26T12:59:18;99771.38;;;9.71;80.96
6020;BME280;3038;51.122;6.840;2023-03-26T13:02:13;99762.16;;;9.67;80.95
6020;BME280;3038;51.122;6.840;2023-03-26T13:04:51;99772.41;;;9.70;80.57
6020;BME280;3038;51.122;6.840;2023-03-26T13:10:14;99767.09;;;9.70;79.01
6020;BME280;3038;51.122;6.840;2023-03-26T13:13:01;99773.41;;;9.69;81.55
6020;BME280;3038;51.122;6.840;2023-03-26T13:15:35;99773.63;;;9.60;79.41
6020;BME280;3038;51.122;6.840;2023-03-26T13:18:15;99773.34;;;9.55;80.44
6020;BME280;3038;51.122;6.840;2023-03-26T13:20:57;99773.59;;;9.68;80.16
6020;BME280;3038;51.122;6.840;2023-03-26T13:23:38;99773.41;;;9.69;79.83
6020;BME280;3038;51.122;6.840;2023-03-26T13:29:09;99781.09;;;10.02;79.43
6020;BME280;3038;51.122;6.840;2023-03-26T13:31:58;99783.47;;;9.97;79.18
6020;BME280;3038;51.122;6.840;2023-03-26T13:34:35;99791.88;;;10.00;79.25
6020;BME280;3038;51.122;6.840;2023-03-26T13:37:41;99787.69;;;10.06;79.01
6020;BME280;3038;51.122;6.840;2023-03-26T13:40:23;99786.84;;;10.05;78.79
6020;BME280;3038;51.122;6.840;2023-03-26T13:48:25;99794.50;;;10.00;78.46
6020;BME280;3038;51.122;6.840;2023-03-26T13:51:11;99799.38;;;9.97;78.80
6020;BME280;3038;51.122;6.840;2023-03-26T13:53:46;99794.06;;;9.97;79.50
6020;BME280;3038;51.122;6.840;2023-03-26T13:56:16;99795.38;;;10.01;80.88
6020;BME280;3038;51.122;6.840;2023-03-26T13:58:56;99795.56;;;10.14;79.45
6020;BME280;3038;51.122;6.840;2023-03-26T14:01:37;99796.91;;;10.10;78.64
6020;BME280;3038;51.122;6.840;2023-03-26T14:04:21;99799.09;;;10.29;78.00
6020;BME280;3038;51.122;6.840;2023-03-26T14:07:00;99800.94;;;10.44;78.16
6020;BME280;3038;51.122;6.840;2023-03-26T14:12:39;99809.16;;;10.34;77.52
6020;BME280;3038;51.122;6.840;2023-03-26T14:15:43;99812.94;;;10.40;77.16
6020;BME280;3038;51.122;6.840;2023-03-26T14:18:32;99811.41;;;10.60;78.39
6020;BME280;3038;51.122;6.840;2023-03-26T14:26:56;99814.56;;;10.26;77.65
6020;BME280;3038;51.122;6.840;2023-03-26T14:29:29;99814.91;;;10.00;76.84
6020;BME280;3038;51.122;6.840;2023-03-26T14:32:11;99817.28;;;9.95;77.69
6020;BME280;3038;51.122;6.840;2023-03-26T14:34:57;99820.28;;;9.92;77.52
6020;BME280;3038;51.122;6.840;2023-03-26T14:48:29;99824.09;;;10.35;77.08
6020;BME280;3038;51.122;6.840;2023-03-26T14:53:59;99832.31;;;10.02;77.15
6020;BME280;3038;51.122;6.840;2023-03-26T14:59:46;99836.59;;;10.03;79.43
6020;BME280;3038;51.122;6.840;2023-03-26T15:11:13;99853.81;;;10.08;76.22
6020;BME280;3038;51.122;6.840;2023-03-26T15:13:54;99860.94;;;10.07;74.85
6020;BME280;3038;51.122;6.840;2023-03-26T15:19:55;99867.25;;;10.06;74.72
6020;BME280;3038;51.122;6.840;2023-03-26T15:28:31;99863.69;;;9.91;72.76
6020;BME280;3038;51.122;6.840;2023-03-26T15:31:10;99875.31;;;9.90;73.34
6020;BME280;3038;51.122;6.840;2023-03-26T15:39:22;99875.25;;;9.75;74.46
6020;BME280;3038;51.122;6.840;2023-03-26T15:42:08;99886.44;;;9.62;75.37
6020;BME280;3038;51.122;6.840;2023-03-26T15:45:00;99893.38;;;9.63;75.26
6020;BME280;3038;51.122;6.840;2023-03-26T15:48:06;99905.13;;;9.61;75.83
6020;BME280;3038;51.122;6.840;2023-03-26T15:53:56;99902.66;;;9.59;76.71
6020;BME280;3038;51.122;6.840;2023-03-26T15:56:50;99901.69;;;9.52;76.68
6020;BME280;3038;51.122;6.840;2023-03-26T15:59:27;99916.81;;;9.43;76.08
6020;BME280;3038;51.122;6.840;2023-03-26T16:05:51;99928.59;;;9.33;77.44
6020;BME280;3038;51.122;6.840;2023-03-26T16:08:15;99939.56;;;9.30;79.35
6020;BME280;3038;51.122;6.840;2023-03-26T16:13:32;99941.91;;;9.24;78.28
6020;BME280;3038;51.122;6.840;2023-03-26T16:29:19;99971.09;;;8.92;81.06
6020;BME280;3038;51.122;6.840;2023-03-26T16:37:40;99989.63;;;8.92;80.25
6020;BME280;3038;51.122;6.840;2023-03-26T16:43:08;99996.56;;;8.93;81.87
6020;BME280;3038;51.122;6.840;2023-03-26T16:48:24;100012.44;;;8.85;81.70
6020;BME280;3038;51.122;6.840;2023-03-26T16:51:19;100016.09;;;8.84;82.09
6020;BME280;3038;51.122;6.840;2023-03-26T16:53:58;100022.69;;;8.80;82.70
6020;BME280;3038;51.122;6.840;2023-03-26T16:56:43;100031.31;;;8.73;83.65
6020;BME280;3038;51.122;6.840;2023-03-26T16:59:35;100039.94;;;8.75;84.78
6020;BME280;3038;51.122;6.840;2023-03-26T17:02:15;100046.19;;;8.66;84.92
6020;BME280;3038;51.122;6.840;2023-03-26T17:04:47;100051.16;;;8.61;85.02
6020;BME280;3038;51.122;6.840;2023-03-26T17:07:23;100063.38;;;8.62;85.96
6020;BME280;3038;51.122;6.840;2023-03-26T17:12:50;100071.13;;;8.47;86.56
6020;BME280;3038;51.122;6.840;2023-03-26T17:21:12;100093.53;;;8.35;86.97
6020;BME280;3038;51.122;6.840;2023-03-26T17:24:00;100101.94;;;8.22;86.36
6020;BME280;3038;51.122;6.840;2023-03-26T17:32:23;100115.91;;;8.07;85.38
6020;BME280;3038;51.122;6.840;2023-03-26T17:42:31;100141.16;;;8.01;84.48
6020;BME280;3038;51.122;6.840;2023-03-26T17:44:58;100152.72;;;8.00;84.76
6020;BME280;3038;51.122;6.840;2023-03-26T17:49:57;100160.00;;;7.98;84.52
6020;BME280;3038;51.122;6.840;2023-03-26T17:52:35;100168.91;;;7.97;84.92
6020;BME280;3038;51.122;6.840;2023-03-26T17:55:08;100170.72;;;7.96;84.86
6020;BME280;3038;51.122;6.840;2023-03-26T17:57:42;100169.88;;;7.96;84.51
6020;BME280;3038;51.122;6.840;2023-03-26T18:00:16;100181.44;;;7.95;84.58
6020;BME280;3038;51.122;6.840;2023-03-26T18:02:48;100186.75;;;7.95;84.67
6020;BME280;3038;51.122;6.840;2023-03-26T18:05:16;100194.50;;;7.96;83.95
6020;BME280;3038;51.122;6.840;2023-03-26T18:16:23;100217.09;;;7.91;84.17